Time;durP1;ratioP1;P1;durP2;ratioP2;P2;SDS_P1;SDS_P2;PMS_P1;PMS_P2;Temp;Humidity;BMP_temperature;BMP_pressure;BME280_temperature;BME280_humidity;BME280_pressure;Samples;Min_cycle;Max_cycle;Signal;HPM_P1;HPM_P2
2023/10/11 08:17:21;;;;;;;9.80;7.10;;;;;;;20.43;100.00;100123.90;181362;1262;46046;-60
2023/10/11 08:21:25;;;;;;;13.90;8.30;;;;;;;20.45;99.14;100118.84;183792;1246;59074;-60
2023/10/11 08:25:30;;;;;;;15.20;8.50;;;;;;;20.49;99.15;100112.06;183397;1246;44562;-59
2023/10/11 08:29:35;;;;;;;10.90;7.70;;;;;;;20.53;97.37;100106.30;183508;1246;43913;-59
2023/10/11 08:33:49;;;;;;;13.90;7.70;;;;;;;20.51;96.59;100107.46;183701;1246;44852;-59
2023/10/11 08:38:00;;;;;;;13.50;6.40;;;;;;;20.45;96.79;100105.51;183337;1246;44992;-59
2023/10/11 08:42:14;;;;;;;9.80;7.30;;;;;;;20.38;97.63;100105.41;183385;1247;59592;-59
2023/10/11 08:46:23;;;;;;;6.90;6.30;;;;;;;20.39;99.09;100101.05;184361;1240;43803;-59
2023/10/11 08:50:36;;;;;;;12.80;6.70;;;;;;;20.55;100.00;100096.11;184355;1240;46072;-59
2023/10/11 08:54:40;;;;;;;10.90;7.20;;;;;;;20.86;100.00;100088.48;184502;1240;43842;-59
2023/10/11 08:59:02;;;;;;;11.80;7.70;;;;;;;21.13;100.00;100076.11;184608;1240;43529;-58
2023/10/11 09:03:39;;;;;;;7.50;6.60;;;;;;;21.34;99.44;100076.37;184434;1240;58768;-59
2023/10/11 09:07:46;;;;;;;8.50;6.30;;;;;;;21.58;97.58;100074.04;184699;1240;43759;-60
2023/10/11 09:11:54;;;;;;;13.10;7.20;;;;;;;21.72;96.92;100074.27;184546;1240;45903;-59
2023/10/11 09:15:57;;;;;;;8.60;6.10;;;;;;;21.84;96.66;100078.80;184668;1239;45973;-60
2023/10/11 09:20:40;;;;;;;11.00;6.30;;;;;;;22.02;98.60;100076.19;184695;1239;43528;-61
2023/10/11 09:24:44;;;;;;;11.40;7.50;;;;;;;22.24;97.46;100076.87;184834;1239;58331;-59
2023/10/11 09:28:56;;;;;;;9.40;6.70;;;;;;;22.40;97.33;100079.29;184663;1239;43676;-59
2023/10/11 09:33:26;;;;;;;17.10;6.30;;;;;;;22.56;95.96;100076.64;184552;1240;44577;-59
2023/10/11 09:37:33;;;;;;;6.50;4.80;;;;;;;22.56;94.00;100081.51;184668;1239;43679;-60
2023/10/11 09:42:11;;;;;;;8.60;5.30;;;;;;;22.61;92.71;100080.86;184569;1240;46124;-59
2023/10/11 09:46:13;;;;;;;8.90;6.70;;;;;;;22.72;93.35;100083.24;184635;1240;58388;-62
2023/10/11 09:50:19;;;;;;;7.40;6.00;;;;;;;22.79;92.31;100084.32;184584;1240;45923;-59
2023/10/11 09:54:21;;;;;;;5.60;4.50;;;;;;;22.79;88.28;100085.36;184730;1239;43467;-60
2023/10/11 09:58:31;;;;;;;10.00;4.70;;;;;;;22.71;87.71;100089.74;184549;1240;46405;-60
2023/10/11 10:02:38;;;;;;;7.40;5.20;;;;;;;22.61;88.13;100090.13;184490;1239;44512;-59
2023/10/11 10:12:20;;;;;;;9.40;5.60;;;;;;;22.63;88.90;100079.30;184596;1239;46053;-60
2023/10/11 10:17:06;;;;;;;9.90;4.80;;;;;;;22.64;89.47;100087.19;184319;1240;44990;-59
2023/10/11 10:21:09;;;;;;;10.20;5.10;;;;;;;22.64;89.81;100085.71;184485;1240;44101;-59
2023/10/11 10:25:19;;;;;;;5.70;4.60;;;;;;;22.66;89.27;100087.02;184412;1239;43493;-59
2023/10/11 10:29:59;;;;;;;8.10;4.40;;;;;;;22.76;88.78;100086.75;184490;1239;58148;-59
2023/10/11 10:34:04;;;;;;;8.40;5.30;;;;;;;22.92;89.99;100080.20;184752;1239;43583;-59
2023/10/11 10:38:09;;;;;;;11.40;6.20;;;;;;;23.09;88.26;100076.64;184585;1240;45034;-59
2023/10/11 10:42:15;;;;;;;5.50;4.20;;;;;;;23.24;86.48;100072.13;184753;1239;44601;-59
2023/10/11 10:46:19;;;;;;;11.20;5.90;;;;;;;23.32;85.49;100070.95;184700;1240;43463;-60
2023/10/11 10:50:21;;;;;;;6.70;4.80;;;;;;;23.42;85.48;100066.10;184435;1240;58540;-59
2023/10/11 10:54:25;;;;;;;11.90;5.30;;;;;;;23.51;86.44;100063.77;184640;1239;44674;-60
2023/10/11 10:58:27;;;;;;;9.20;6.00;;;;;;;23.55;84.62;100064.53;184652;1239;43744;-60
2023/10/11 11:02:33;;;;;;;6.40;4.70;;;;;;;23.54;84.05;100065.70;184627;1239;45903;-60
2023/10/11 11:06:53;;;;;;;7.60;4.10;;;;;;;23.63;85.97;100054.02;184743;1239;43716;-61
2023/10/11 11:15:36;;;;;;;10.70;6.20;;;;;;;23.70;84.09;100049.91;184515;1239;43907;-60
2023/10/11 11:19:41;;;;;;;7.60;4.50;;;;;;;23.76;84.48;100050.23;184343;1240;44777;-61
2023/10/11 11:23:45;;;;;;;11.80;4.20;;;;;;;23.86;84.68;100046.88;184595;1239;46051;-60
2023/10/11 11:28:26;;;;;;;10.60;6.20;;;;;;;23.97;84.13;100039.63;184485;1238;43512;-60
2023/10/11 11:32:37;;;;;;;7.50;4.60;;;;;;;24.09;86.09;100041.14;184626;1239;58576;-59
2023/10/11 11:36:42;;;;;;;11.70;6.10;;;;;;;24.16;85.43;100041.61;184582;1241;46015;-60
2023/10/11 11:40:47;;;;;;;7.90;5.20;;;;;;;24.21;84.22;100032.39;184751;1239;45935;-60
2023/10/11 11:44:51;;;;;;;6.90;5.30;;;;;;;24.26;84.04;100028.41;184730;1239;44992;-61
2023/10/11 11:48:53;;;;;;;6.20;4.40;;;;;;;24.28;84.07;100028.05;184808;1239;43786;-61
2023/10/11 11:52:57;;;;;;;24.20;5.80;;;;;;;24.27;83.22;100025.52;184742;1239;58128;-59
2023/10/11 11:57:04;;;;;;;;;;;;;;;24.22;82.55;100017.38;184778;1238;44551;-60
2023/10/11 12:01:15;;;;;;;8.30;5.00;;;;;;;24.18;82.06;100014.89;184755;1239;45691;-60
2023/10/11 12:05:19;;;;;;;7.00;5.50;;;;;;;24.15;83.49;100006.42;184696;1239;45936;-59
2023/10/11 12:09:21;;;;;;;9.50;6.30;;;;;;;24.15;83.28;100004.67;184705;1238;44590;-60
2023/10/11 12:13:27;;;;;;;10.60;5.30;;;;;;;24.09;83.41;100006.16;184636;1239;58456;-60
2023/10/11 12:17:32;;;;;;;9.00;5.40;;;;;;;24.07;84.07;100002.23;184704;1239;46366;-59
2023/10/11 12:26:33;;;;;;;10.90;4.80;;;;;;;24.07;84.92;99999.06;184574;1239;44796;-59
2023/10/11 12:30:37;;;;;;;10.10;5.00;;;;;;;24.11;85.97;99999.07;184305;1240;44035;-60
2023/10/11 12:34:40;;;;;;;12.30;7.40;;;;;;;24.11;85.95;99993.67;184634;1241;58072;-59
2023/10/11 12:38:41;;;;;;;7.80;5.30;;;;;;;24.17;86.08;99989.85;184515;1240;43703;-59
2023/10/11 12:42:45;;;;;;;8.10;5.40;;;;;;;24.21;87.40;99979.84;184412;1240;45922;-60
2023/10/11 12:46:51;;;;;;;7.00;4.70;;;;;;;24.22;87.28;99969.59;184721;1239;43494;-59
2023/10/11 12:50:53;;;;;;;;;;;;;;;24.23;86.79;99964.80;184943;1238;44740;-60
2023/10/11 12:54:55;;;;;;;7.50;4.70;;;;;;;24.34;86.77;99962.77;184719;1240;58110;-60
2023/10/11 12:58:57;;;;;;;12.00;4.60;;;;;;;24.47;86.50;99957.61;184754;1240;43535;-60
2023/10/11 13:08:01;;;;;;;16.00;5.60;;;;;;;24.72;85.82;99956.34;184939;1238;43670;-61
2023/10/11 13:41:27;;;;;;;11.10;4.90;;;;;;;24.71;81.91;99938.36;182359;1241;57967;-84
2023/10/11 13:45:29;;;;;;;9.90;6.20;;;;;;;24.61;81.77;99937.77;182756;1241;46651;-84
2023/10/11 13:49:37;;;;;;;12.20;5.30;;;;;;;24.52;82.41;99935.98;182412;1241;45840;-85
2023/10/11 13:53:42;;;;;;;9.40;5.10;;;;;;;24.46;82.32;99935.59;182304;1238;46660;-84
2023/10/11 13:57:52;;;;;;;7.50;5.30;;;;;;;24.38;82.80;99924.64;182098;1238;44047;-84
2023/10/11 14:10:27;;;;;;;13.00;5.00;;;;;;;24.09;82.92;99921.43;182360;1235;46006;-83
2023/10/11 14:14:39;;;;;;;8.30;4.20;;;;;;;24.03;83.81;99917.72;183192;1239;46058;-85
2023/10/11 14:18:41;;;;;;;8.80;5.60;;;;;;;23.97;83.44;99913.00;182920;1237;45992;-85
2023/10/11 14:22:44;;;;;;;11.00;6.70;;;;;;;23.91;83.72;99916.14;183733;1235;57923;-84
2023/10/11 14:26:47;;;;;;;8.30;5.20;;;;;;;23.90;83.96;99913.94;183394;1235;45832;-83
2023/10/11 14:30:51;;;;;;;8.20;5.40;;;;;;;23.89;84.27;99911.56;183283;1236;46054;-83
2023/10/11 14:34:54;;;;;;;15.10;4.90;;;;;;;23.88;83.07;99905.15;182618;1239;45745;-83
2023/10/11 14:38:57;;;;;;;8.90;4.40;;;;;;;23.82;82.53;99911.83;183041;1239;45970;-83
2023/10/11 14:42:59;;;;;;;14.60;6.00;;;;;;;23.73;82.82;99909.25;183176;1235;57887;-84
2023/10/11 14:47:01;;;;;;;11.90;5.00;;;;;;;23.60;83.99;99907.27;182871;1236;46079;-83
2023/10/11 14:51:06;;;;;;;10.00;5.50;;;;;;;23.45;84.13;99904.33;182929;1235;45888;-83
2023/10/11 14:55:16;;;;;;;8.10;5.60;;;;;;;23.30;85.42;99905.56;184275;1235;45893;-84
2023/10/11 14:59:18;;;;;;;17.90;5.90;;;;;;;23.13;86.48;99905.94;182642;1235;46084;-83
2023/10/11 15:03:20;;;;;;;10.10;5.70;;;;;;;23.01;86.64;99903.85;183215;1235;58145;-84
2023/10/11 15:07:23;;;;;;;12.00;5.90;;;;;;;22.93;87.35;99906.34;182803;1235;46021;-84
2023/10/11 15:11:25;;;;;;;9.40;5.70;;;;;;;22.83;87.95;99907.48;182611;1235;46058;-84
2023/10/11 15:15:27;;;;;;;10.20;5.70;;;;;;;22.73;88.30;99904.06;182616;1235;46019;-84
2023/10/11 15:19:30;;;;;;;10.80;5.30;;;;;;;22.61;89.32;99906.13;182706;1239;46124;-84
2023/10/11 15:23:33;;;;;;;10.10;4.80;;;;;;;22.48;89.57;99906.24;183235;1235;60805;-84
2023/10/11 15:27:36;;;;;;;11.20;6.20;;;;;;;22.33;89.59;99904.22;182895;1238;46082;-85
2023/10/11 15:31:38;;;;;;;7.60;5.10;;;;;;;22.24;89.29;99904.49;183489;1235;44911;-84
2023/10/11 15:35:47;;;;;;;7.60;5.30;;;;;;;22.08;89.66;99902.70;183414;1235;44234;-82
2023/10/11 15:39:49;;;;;;;8.10;5.10;;;;;;;21.97;90.14;99893.18;183110;1235;45982;-83
2023/10/11 15:43:52;;;;;;;8.70;5.50;;;;;;;21.83;90.55;99896.70;183700;1235;58456;-85
2023/10/11 15:47:54;;;;;;;9.20;4.60;;;;;;;21.71;90.98;99900.58;184062;1235;45853;-84
2023/10/11 15:51:56;;;;;;;12.00;6.00;;;;;;;21.59;90.61;99902.38;184029;1235;46055;-83
2023/10/11 15:56:01;;;;;;;11.90;6.30;;;;;;;21.49;90.43;99902.47;183107;1235;46149;-83
2023/10/11 16:00:12;;;;;;;11.90;7.70;;;;;;;21.37;90.62;99900.13;183218;1235;44101;-84
2023/10/11 16:04:14;;;;;;;10.50;5.40;;;;;;;21.22;91.23;99903.56;183161;1235;59392;-84
2023/10/11 16:08:17;;;;;;;7.40;4.40;;;;;;;21.00;92.61;99902.44;183557;1236;44023;-84
2023/10/11 16:12:19;;;;;;;13.30;6.10;;;;;;;20.82;93.67;99898.83;183400;1235;46069;-84
2023/10/11 16:16:21;;;;;;;8.50;5.40;;;;;;;20.69;94.55;99899.10;183459;1234;44468;-84
2023/10/11 16:20:25;;;;;;;12.50;5.90;;;;;;;20.55;95.07;99896.75;184034;1235;45783;-84
2023/10/11 16:24:28;;;;;;;8.70;5.10;;;;;;;20.40;95.65;99902.29;183640;1238;57124;-83
2023/10/11 16:28:30;;;;;;;10.50;7.00;;;;;;;20.28;96.54;99911.38;183277;1236;46128;-83
2023/10/11 16:32:33;;;;;;;10.30;6.60;;;;;;;20.20;96.68;99910.11;183080;1235;45983;-83
2023/10/11 16:36:36;;;;;;;7.10;5.10;;;;;;;20.10;97.36;99910.60;182789;1237;46002;-83
2023/10/11 16:40:38;;;;;;;9.80;5.60;;;;;;;20.00;97.66;99912.41;182885;1235;45926;-85
2023/10/11 16:44:40;;;;;;;13.70;7.60;;;;;;;19.95;98.01;99916.15;183471;1235;58385;-84
2023/10/11 16:48:42;;;;;;;16.20;7.10;;;;;;;19.92;98.11;99913.22;183364;1235;44197;-84
2023/10/11 16:52:44;;;;;;;10.70;6.30;;;;;;;19.87;98.69;99922.50;183624;1234;46000;-84
2023/10/11 16:56:46;;;;;;;7.90;6.20;;;;;;;19.81;98.33;99921.57;182866;1236;46069;-84
2023/10/11 17:00:48;;;;;;;12.70;5.90;;;;;;;19.77;98.93;99919.94;183016;1235;46124;-84
2023/10/11 17:04:50;;;;;;;11.20;8.10;;;;;;;19.70;98.06;99925.39;182561;1235;57943;-84
2023/10/11 17:08:52;;;;;;;12.10;8.00;;;;;;;19.61;96.78;99929.34;183334;1235;45951;-84
2023/10/11 17:12:55;;;;;;;10.00;7.00;;;;;;;19.54;97.31;99926.30;182676;1235;46742;-83
2023/10/11 17:16:57;;;;;;;11.40;6.60;;;;;;;19.45;97.62;99924.27;182505;1235;46207;-84
2023/10/11 17:20:59;;;;;;;10.00;6.50;;;;;;;19.37;98.10;99920.87;182868;1237;45983;-87
2023/10/11 17:25:01;;;;;;;9.30;6.50;;;;;;;19.32;98.33;99918.19;182960;1238;59313;-86
2023/10/11 17:29:05;;;;;;;8.50;5.80;;;;;;;19.27;100.00;99915.22;183055;1235;45913;-85
2023/10/11 17:33:09;;;;;;;14.30;8.00;;;;;;;19.24;100.00;99912.48;183025;1235;45992;-85
2023/10/11 17:37:11;;;;;;;18.80;7.70;;;;;;;19.23;100.00;99906.75;183191;1235;46225;-85
2023/10/11 17:41:14;;;;;;;10.40;6.10;;;;;;;19.20;100.00;99901.70;182898;1235;47508;-85
2023/10/11 17:45:22;;;;;;;8.40;6.50;;;;;;;19.19;100.00;99895.19;183090;1235;57864;-84
2023/10/11 17:49:24;;;;;;;12.40;6.70;;;;;;;19.19;100.00;99894.14;182677;1235;46077;-85
2023/10/11 17:53:26;;;;;;;11.00;7.00;;;;;;;19.17;100.00;99887.32;182792;1235;45933;-85
2023/10/11 17:57:28;;;;;;;11.70;8.80;;;;;;;19.19;100.00;99885.14;183099;1235;46012;-84
2023/10/11 18:01:33;;;;;;;9.70;5.70;;;;;;;19.20;100.00;99881.59;183228;1235;46005;-83
2023/10/11 18:05:39;;;;;;;12.50;7.70;;;;;;;19.23;100.00;99877.42;183752;1234;57802;-83
2023/10/11 18:09:41;;;;;;;19.90;7.90;;;;;;;19.28;99.95;99875.20;184855;1235;46093;-82
2023/10/11 18:13:44;;;;;;;10.20;6.90;;;;;;;19.35;99.66;99877.08;185066;1235;45963;-84
2023/10/11 18:17:49;;;;;;;11.60;6.90;;;;;;;19.42;98.03;99880.96;183439;1236;46001;-84
2023/10/11 18:21:53;;;;;;;11.50;6.40;;;;;;;19.44;96.50;99883.08;183530;1235;281988;-84
2023/10/11 18:25:57;;;;;;;23.60;8.90;;;;;;;19.42;96.10;99883.89;183089;1238;59272;-84
2023/10/11 18:30:00;;;;;;;8.10;5.50;;;;;;;19.38;95.35;99886.48;183923;1235;46044;-84
2023/10/11 18:34:02;;;;;;;12.50;8.50;;;;;;;19.32;95.41;99884.48;183267;1235;46069;-83
2023/10/11 18:38:05;;;;;;;10.40;6.70;;;;;;;19.23;95.98;99884.27;182737;1238;46018;-84
2023/10/11 18:42:07;;;;;;;20.90;8.00;;;;;;;19.14;96.87;99883.89;183337;1237;46092;-84
2023/10/11 18:46:10;;;;;;;22.50;7.80;;;;;;;19.07;96.85;99887.34;183484;1235;57939;-83
2023/10/11 18:50:14;;;;;;;7.90;6.50;;;;;;;18.99;97.34;99888.30;182706;1236;46003;-84
2023/10/11 18:54:16;;;;;;;17.00;7.30;;;;;;;18.91;98.42;99888.96;182959;1235;46012;-83
2023/10/11 18:58:18;;;;;;;15.90;7.10;;;;;;;18.86;99.42;99892.02;183346;1234;46451;-83
2023/10/11 19:02:20;;;;;;;15.50;7.00;;;;;;;18.83;100.00;99893.11;183188;1235;45995;-83
2023/10/11 19:06:26;;;;;;;12.70;6.80;;;;;;;18.80;100.00;99896.23;183344;1235;57906;-83
2023/10/11 19:10:30;;;;;;;13.40;9.50;;;;;;;18.78;100.00;99899.82;182842;1236;46139;-83
2023/10/11 19:14:35;;;;;;;13.30;7.70;;;;;;;18.78;100.00;99899.02;183023;1235;44047;-83
2023/10/11 19:18:38;;;;;;;16.20;8.10;;;;;;;18.81;100.00;99895.66;183185;1235;46112;-84
2023/10/11 19:22:43;;;;;;;7.50;6.20;;;;;;;18.84;100.00;99894.82;183268;1235;46003;-81
2023/10/11 19:26:47;;;;;;;9.60;6.60;;;;;;;18.91;100.00;99896.27;184314;1235;58131;-83
2023/10/11 19:30:49;;;;;;;9.70;5.80;;;;;;;18.94;100.00;99896.75;183553;1235;46058;-83
2023/10/11 19:34:58;;;;;;;10.50;6.20;;;;;;;18.96;100.00;99901.17;183058;1238;44066;-84
2023/10/11 19:39:01;;;;;;;12.40;7.10;;;;;;;19.00;100.00;99901.88;182637;1236;45931;-84
2023/10/11 19:43:03;;;;;;;12.60;7.30;;;;;;;18.98;100.00;99899.89;182399;1235;46034;-84
2023/10/11 19:47:05;;;;;;;9.30;5.00;;;;;;;18.93;100.00;99899.82;182572;1236;59271;-84
2023/10/11 19:51:07;;;;;;;10.50;6.00;;;;;;;18.90;100.00;99901.23;182479;1238;45992;-84
2023/10/11 19:55:13;;;;;;;10.60;5.80;;;;;;;18.90;100.00;99902.27;182698;1236;46142;-84
2023/10/11 19:59:16;;;;;;;10.80;5.60;;;;;;;18.93;100.00;99902.88;182752;1234;46441;-84
2023/10/11 20:03:21;;;;;;;7.50;6.30;;;;;;;18.91;99.31;99899.00;182444;1238;45942;-85
2023/10/11 20:07:24;;;;;;;9.70;5.90;;;;;;;18.90;99.50;99896.92;182812;1238;58054;-82
2023/10/11 20:11:30;;;;;;;10.10;6.60;;;;;;;18.91;99.19;99896.14;182636;1235;46054;-82
2023/10/11 20:15:36;;;;;;;12.40;5.70;;;;;;;18.90;98.64;99893.73;182863;1238;46071;-83
2023/10/11 20:19:38;;;;;;;8.90;5.30;;;;;;;18.87;98.34;99891.04;182914;1235;44051;-83
2023/10/11 20:23:41;;;;;;;10.10;6.70;;;;;;;18.86;98.61;99888.27;182439;1235;46038;-83
2023/10/11 20:27:47;;;;;;;13.00;5.50;;;;;;;18.86;98.15;99892.36;182665;1235;59773;-83
2023/10/11 20:31:49;;;;;;;11.10;5.60;;;;;;;18.88;97.89;99889.62;183309;1234;46005;-83
2023/10/11 20:35:52;;;;;;;9.30;6.20;;;;;;;18.92;97.46;99891.68;182639;1235;45948;-83
2023/10/11 20:39:54;;;;;;;8.60;5.50;;;;;;;18.89;97.11;99890.00;182672;1235;45973;-83
2023/10/11 20:43:56;;;;;;;13.40;6.00;;;;;;;18.89;96.98;99886.33;182747;1237;45977;-83
2023/10/11 20:47:58;;;;;;;8.90;5.30;;;;;;;18.90;96.99;99884.23;182749;1236;57805;-84
2023/10/11 20:52:01;;;;;;;12.90;5.20;;;;;;;18.92;96.57;99882.01;182304;1238;46119;-83
2023/10/11 20:56:06;;;;;;;12.60;5.90;;;;;;;18.91;95.94;99881.14;182508;1235;45947;-83
2023/10/11 21:00:15;;;;;;;12.80;6.20;;;;;;;18.89;96.12;99878.73;182667;1235;46026;-83
2023/10/11 21:04:17;;;;;;;9.60;5.10;;;;;;;18.86;96.22;99875.48;182484;1234;46160;-84
2023/10/11 21:08:25;;;;;;;9.00;5.80;;;;;;;18.86;96.29;99873.02;182168;1237;59487;-84
2023/10/11 21:12:28;;;;;;;9.80;5.60;;;;;;;18.84;96.24;99869.27;182562;1235;46418;-83
2023/10/11 21:16:33;;;;;;;10.10;4.90;;;;;;;18.85;96.01;99867.31;182785;1238;44301;-84
2023/10/11 21:20:41;;;;;;;14.00;5.00;;;;;;;18.87;95.61;99864.77;182351;1238;46186;-83
2023/10/11 21:24:46;;;;;;;9.80;5.40;;;;;;;18.87;95.16;99863.48;182129;1235;45956;-84
2023/10/11 21:28:52;;;;;;;9.50;5.40;;;;;;;18.87;94.98;99861.36;182575;1235;58032;-84
2023/10/11 21:32:57;;;;;;;14.40;6.60;;;;;;;18.85;94.83;99858.42;182451;1235;46080;-84
2023/10/11 21:36:59;;;;;;;6.90;4.40;;;;;;;18.81;95.16;99859.26;182637;1236;46066;-84
2023/10/11 21:41:01;;;;;;;7.90;6.30;;;;;;;18.73;95.42;99856.35;182243;1237;46105;-84
2023/10/11 21:45:04;;;;;;;12.30;5.80;;;;;;;18.65;96.22;99848.05;182846;1235;46068;-84
2023/10/11 21:49:11;;;;;;;9.40;5.30;;;;;;;18.59;96.94;99842.40;182638;1235;59315;-84
2023/10/11 21:53:13;;;;;;;12.80;6.00;;;;;;;18.54;97.99;99837.20;182537;1235;46003;-84
2023/10/11 21:57:15;;;;;;;8.50;5.50;;;;;;;18.54;98.65;99834.15;182220;1235;46020;-84
2023/10/11 22:01:23;;;;;;;12.90;5.60;;;;;;;18.54;98.95;99828.92;181909;1239;46216;-84
2023/10/11 22:05:27;;;;;;;10.60;6.20;;;;;;;18.55;99.04;99827.19;182302;1235;46145;-85
2023/10/11 22:09:29;;;;;;;7.70;5.80;;;;;;;18.57;99.20;99826.26;182521;1235;59677;-84
2023/10/11 22:13:32;;;;;;;18.10;5.90;;;;;;;18.57;99.32;99822.99;182345;1235;46086;-84
2023/10/11 22:17:36;;;;;;;8.30;5.40;;;;;;;18.58;99.31;99817.65;182570;1235;44622;-84
2023/10/11 22:21:38;;;;;;;8.90;6.00;;;;;;;18.60;99.56;99817.10;182453;1235;45856;-84
2023/10/11 22:25:42;;;;;;;9.10;6.10;;;;;;;18.63;99.86;99814.06;182567;1235;46837;-84
2023/10/11 22:29:45;;;;;;;14.10;6.70;;;;;;;18.67;99.82;99818.20;183038;1237;59567;-84
2023/10/11 22:33:47;;;;;;;8.70;5.80;;;;;;;18.69;99.32;99822.30;182397;1238;46149;-85
2023/10/11 22:37:51;;;;;;;11.50;5.40;;;;;;;18.68;98.53;99821.70;182525;1237;46194;-85
2023/10/11 22:41:53;;;;;;;10.40;5.50;;;;;;;18.72;98.28;99816.02;182563;1235;45952;-84
2023/10/11 22:45:55;;;;;;;9.40;5.80;;;;;;;18.74;97.96;99812.89;182110;1236;45863;-83
2023/10/11 22:49:57;;;;;;;7.10;5.20;;;;;;;18.75;97.63;99809.66;182656;1235;59510;-84
2023/10/11 22:54:01;;;;;;;11.50;5.30;;;;;;;18.76;97.87;99811.88;182776;1235;45932;-84
2023/10/11 22:58:05;;;;;;;20.60;6.10;;;;;;;18.79;97.75;99809.88;182582;1235;45851;-84
2023/10/11 23:02:07;;;;;;;13.00;5.60;;;;;;;18.86;97.14;99804.14;182757;1235;46095;-84
2023/10/11 23:06:10;;;;;;;11.90;5.30;;;;;;;18.92;96.95;99805.40;182615;1235;45868;-84
2023/10/11 23:10:26;;;;;;;10.50;5.00;;;;;;;18.95;96.45;99798.14;182341;1235;59426;-84
2023/10/11 23:14:31;;;;;;;11.80;5.90;;;;;;;19.02;96.25;99793.50;182553;1235;45990;-84
2023/10/11 23:18:33;;;;;;;13.70;6.40;;;;;;;19.05;96.06;99791.81;182447;1235;45026;-84
2023/10/11 23:22:36;;;;;;;7.20;4.20;;;;;;;19.06;96.07;99795.63;182341;1238;46151;-84
2023/10/11 23:26:40;;;;;;;7.20;4.80;;;;;;;19.09;95.74;99796.52;182767;1235;44695;-84
2023/10/11 23:30:42;;;;;;;7.40;5.30;;;;;;;19.13;95.54;99803.55;182390;1237;58528;-85
2023/10/11 23:34:44;;;;;;;7.50;4.40;;;;;;;19.15;95.50;99804.36;182496;1235;45952;-84
2023/10/11 23:38:49;;;;;;;9.70;5.10;;;;;;;19.16;95.04;99802.15;182276;1234;46155;-84
2023/10/11 23:42:57;;;;;;;11.00;5.10;;;;;;;19.14;94.61;99797.13;182209;1237;46050;-84
2023/10/11 23:51:21;;;;;;;13.90;5.90;;;;;;;19.05;94.34;99793.61;182775;1235;58148;-84
2023/10/11 23:55:26;;;;;;;13.80;6.10;;;;;;;19.00;94.20;99791.58;183016;1238;45983;-84
2023/10/11 23:59:31;;;;;;;11.90;5.00;;;;;;;18.96;93.82;99790.93;183118;1235;46015;-84
